sensor_id;sensor_type;location;lat;lon;timestamp;pressure;altitude;pressure_sealevel;temperature;humidity
79285;BME280;68734;50.452;11.636;2023-06-22T00:02:21;95879.13;;;16.22;85.16
79285;BME280;68734;50.452;11.636;2023-06-22T00:04:46;95882.16;;;16.15;85.65
79285;BME280;68734;50.452;11.636;2023-06-22T00:07:14;95880.88;;;16.07;85.52
79285;BME280;68734;50.452;11.636;2023-06-22T00:09:39;95877.41;;;16.02;85.39
79285;BME280;68734;50.452;11.636;2023-06-22T00:12:07;95883.06;;;16.05;85.67
79285;BME280;68734;50.452;11.636;2023-06-22T00:14:32;95876.00;;;16.04;85.89
79285;BME280;68734;50.452;11.636;2023-06-22T00:16:58;95877.63;;;16.05;85.73
79285;BME280;68734;50.452;11.636;2023-06-22T00:19:24;95877.63;;;16.05;85.37
79285;BME280;68734;50.452;11.636;2023-06-22T00:21:50;95887.44;;;16.06;84.95
79285;BME280;68734;50.452;11.636;2023-06-22T00:24:20;95890.72;;;16.03;85.13
79285;BME280;68734;50.452;11.636;2023-06-22T00:26:46;95884.28;;;15.94;85.35
79285;BME280;68734;50.452;11.636;2023-06-22T00:29:12;95889.75;;;15.89;85.14
79285;BME280;68734;50.452;11.636;2023-06-22T00:31:38;95892.03;;;15.82;85.10
79285;BME280;68734;50.452;11.636;2023-06-22T00:34:03;95897.47;;;15.82;85.23
79285;BME280;68734;50.452;11.636;2023-06-22T00:36:28;95894.25;;;15.74;85.57
79285;BME280;68734;50.452;11.636;2023-06-22T00:38:54;95900.50;;;15.75;85.42
79285;BME280;68734;50.452;11.636;2023-06-22T00:41:21;95891.00;;;15.72;86.15
79285;BME280;68734;50.452;11.636;2023-06-22T00:43:49;95887.16;;;15.73;86.01
79285;BME280;68734;50.452;11.636;2023-06-22T00:46:15;95884.50;;;15.63;86.29
79285;BME280;68734;50.452;11.636;2023-06-22T00:48:42;95890.47;;;15.65;86.27
79285;BME280;68734;50.452;11.636;2023-06-22T00:51:10;95875.34;;;15.49;88.13
79285;BME280;68734;50.452;11.636;2023-06-22T00:53:36;95874.28;;;15.50;89.34
79285;BME280;68734;50.452;11.636;2023-06-22T00:56:02;95865.00;;;15.51;89.46
79285;BME280;68734;50.452;11.636;2023-06-22T00:58:29;95868.28;;;15.48;88.97
79285;BME280;68734;50.452;11.636;2023-06-22T01:00:55;95868.50;;;15.51;87.87
79285;BME280;68734;50.452;11.636;2023-06-22T01:03:20;95860.88;;;15.53;87.51
79285;BME280;68734;50.452;11.636;2023-06-22T01:05:46;95852.44;;;15.55;87.32
79285;BME280;68734;50.452;11.636;2023-06-22T01:08:22;95851.34;;;15.56;87.44
79285;BME280;68734;50.452;11.636;2023-06-22T01:11:08;95854.06;;;15.56;87.07
79285;BME280;68734;50.452;11.636;2023-06-22T01:13:37;95848.63;;;15.56;87.41
79285;BME280;68734;50.452;11.636;2023-06-22T01:16:29;95843.75;;;15.53;87.11
79285;BME280;68734;50.452;11.636;2023-06-22T01:18:57;95846.53;;;15.48;87.66
79285;BME280;68734;50.452;11.636;2023-06-22T01:21:28;95848.13;;;15.49;87.42
79285;BME280;68734;50.452;11.636;2023-06-22T01:26:57;95870.69;;;15.54;87.76
79285;BME280;68734;50.452;11.636;2023-06-22T01:29:27;95869.03;;;15.53;87.82
79285;BME280;68734;50.452;11.636;2023-06-22T01:31:57;95855.44;;;15.53;87.77
79285;BME280;68734;50.452;11.636;2023-06-22T01:34:27;95860.13;;;15.48;88.16
79285;BME280;68734;50.452;11.636;2023-06-22T01:36:54;95846.03;;;15.41;88.20
79285;BME280;68734;50.452;11.636;2023-06-22T01:39:21;95832.78;;;15.29;88.63
79285;BME280;68734;50.452;11.636;2023-06-22T01:41:47;95839.53;;;15.31;89.94
79285;BME280;68734;50.452;11.636;2023-06-22T01:44:14;95834.41;;;15.30;89.35
79285;BME280;68734;50.452;11.636;2023-06-22T01:46:40;95833.56;;;15.29;88.54
79285;BME280;68734;50.452;11.636;2023-06-22T01:49:06;95841.75;;;15.29;87.91
79285;BME280;68734;50.452;11.636;2023-06-22T01:51:31;95835.25;;;15.25;87.69
79285;BME280;68734;50.452;11.636;2023-06-22T01:54:01;95841.34;;;15.12;88.53
79285;BME280;68734;50.452;11.636;2023-06-22T01:56:27;95852.81;;;15.04;88.86
79285;BME280;68734;50.452;11.636;2023-06-22T01:59:09;95857.41;;;15.03;88.54
79285;BME280;68734;50.452;11.636;2023-06-22T02:02:07;95872.13;;;15.02;88.27
79285;BME280;68734;50.452;11.636;2023-06-22T02:04:48;95866.41;;;15.04;88.77
79285;BME280;68734;50.452;11.636;2023-06-22T02:07:20;95862.06;;;15.03;88.92
79285;BME280;68734;50.452;11.636;2023-06-22T02:09:50;95864.25;;;15.01;88.44
79285;BME280;68734;50.452;11.636;2023-06-22T02:12:22;95871.88;;;14.99;88.30
79285;BME280;68734;50.452;11.636;2023-06-22T02:14:53;95863.44;;;14.95;88.30
79285;BME280;68734;50.452;11.636;2023-06-22T02:17:19;95855.06;;;14.91;87.89
79285;BME280;68734;50.452;11.636;2023-06-22T02:19:45;95841.47;;;14.86;88.45
79285;BME280;68734;50.452;11.636;2023-06-22T02:22:11;95834.97;;;14.82;89.03
79285;BME280;68734;50.452;11.636;2023-06-22T02:24:37;95839.34;;;14.78;89.48
79285;BME280;68734;50.452;11.636;2023-06-22T02:27:03;95844.00;;;14.78;89.33
79285;BME280;68734;50.452;11.636;2023-06-22T02:29:29;95844.25;;;14.76;88.35
79285;BME280;68734;50.452;11.636;2023-06-22T02:31:55;95841.28;;;14.78;88.29
79285;BME280;68734;50.452;11.636;2023-06-22T02:34:21;95837.72;;;14.77;88.57
79285;BME280;68734;50.452;11.636;2023-06-22T02:36:50;95836.38;;;14.80;88.18
79285;BME280;68734;50.452;11.636;2023-06-22T02:39:23;95842.56;;;14.85;88.55
79285;BME280;68734;50.452;11.636;2023-06-22T02:41:50;95844.47;;;14.85;88.67
79285;BME280;68734;50.452;11.636;2023-06-22T02:44:16;95834.97;;;14.82;88.65
79285;BME280;68734;50.452;11.636;2023-06-22T02:46:41;95824.66;;;14.79;88.62
79285;BME280;68734;50.452;11.636;2023-06-22T02:49:07;95819.22;;;14.79;88.66
79285;BME280;68734;50.452;11.636;2023-06-22T02:51:33;95825.78;;;14.73;87.75
79285;BME280;68734;50.452;11.636;2023-06-22T02:54:02;95826.09;;;14.66;88.33
79285;BME280;68734;50.452;11.636;2023-06-22T02:56:30;95830.75;;;14.61;87.94
79285;BME280;68734;50.452;11.636;2023-06-22T02:58:55;95835.63;;;14.59;88.91
79285;BME280;68734;50.452;11.636;2023-06-22T03:01:30;95839.41;;;14.68;89.27
79285;BME280;68734;50.452;11.636;2023-06-22T03:03:56;95842.66;;;14.70;89.51
79285;BME280;68734;50.452;11.636;2023-06-22T03:06:22;95841.53;;;14.76;89.14
79285;BME280;68734;50.452;11.636;2023-06-22T03:08:49;95848.06;;;14.75;90.70
79285;BME280;68734;50.452;11.636;2023-06-22T03:11:14;95862.19;;;14.82;89.41
79285;BME280;68734;50.452;11.636;2023-06-22T03:13:42;95879.00;;;14.89;88.98
79285;BME280;68734;50.452;11.636;2023-06-22T03:16:08;95893.31;;;15.05;92.45
79285;BME280;68734;50.452;11.636;2023-06-22T03:18:33;95903.22;;;15.35;93.71
79285;BME280;68734;50.452;11.636;2023-06-22T03:21:01;95913.00;;;15.31;85.98
79285;BME280;68734;50.452;11.636;2023-06-22T03:23:27;95926.13;;;15.24;87.03
79285;BME280;68734;50.452;11.636;2023-06-22T03:25:53;95946.19;;;15.39;91.50
79285;BME280;68734;50.452;11.636;2023-06-22T03:28:21;95978.13;;;15.67;92.12
79285;BME280;68734;50.452;11.636;2023-06-22T03:30:46;95993.75;;;15.96;91.85
79285;BME280;68734;50.452;11.636;2023-06-22T03:33:12;96003.94;;;16.20;91.13
79285;BME280;68734;50.452;11.636;2023-06-22T03:35:37;96026.63;;;16.44;90.56
79285;BME280;68734;50.452;11.636;2023-06-22T03:38:05;96025.25;;;16.71;89.30
79285;BME280;68734;50.452;11.636;2023-06-22T03:40:31;96024.03;;;16.87;88.27
79285;BME280;68734;50.452;11.636;2023-06-22T03:42:56;96015.81;;;16.92;88.09
79285;BME280;68734;50.452;11.636;2023-06-22T03:45:22;96008.81;;;17.05;87.46
79285;BME280;68734;50.452;11.636;2023-06-22T03:47:47;95997.06;;;17.10;86.98
79285;BME280;68734;50.452;11.636;2023-06-22T03:50:16;95993.44;;;17.14;86.98
79285;BME280;68734;50.452;11.636;2023-06-22T03:52:41;95985.53;;;17.13;86.64
79285;BME280;68734;50.452;11.636;2023-06-22T03:55:07;95992.16;;;17.07;86.93
79285;BME280;68734;50.452;11.636;2023-06-22T03:57:33;96005.53;;;17.08;86.89
79285;BME280;68734;50.452;11.636;2023-06-22T03:59:58;96006.84;;;17.11;86.12
79285;BME280;68734;50.452;11.636;2023-06-22T04:02:26;95998.94;;;17.09;85.09
79285;BME280;68734;50.452;11.636;2023-06-22T04:04:52;95988.13;;;17.04;85.07
79285;BME280;68734;50.452;11.636;2023-06-22T04:07:21;95997.66;;;17.26;84.53
79285;BME280;68734;50.452;11.636;2023-06-22T04:09:51;95990.22;;;17.31;84.22
79285;BME280;68734;50.452;11.636;2023-06-22T04:12:16;95995.25;;;17.24;84.96
79285;BME280;68734;50.452;11.636;2023-06-22T04:14:42;96006.97;;;17.25;85.39
79285;BME280;68734;50.452;11.636;2023-06-22T04:17:07;95994.09;;;17.06;86.35
79285;BME280;68734;50.452;11.636;2023-06-22T04:19:35;95962.94;;;16.88;87.27
79285;BME280;68734;50.452;11.636;2023-06-22T04:22:00;95956.34;;;16.89;87.62
79285;BME280;68734;50.452;11.636;2023-06-22T04:24:28;95929.06;;;16.89;88.27
79285;BME280;68734;50.452;11.636;2023-06-22T04:26:53;95863.41;;;16.86;88.85
79285;BME280;68734;50.452;11.636;2023-06-22T04:29:24;95786.31;;;16.75;87.67
79285;BME280;68734;50.452;11.636;2023-06-22T04:31:54;95746.34;;;16.46;88.82
79285;BME280;68734;50.452;11.636;2023-06-22T04:34:21;95758.56;;;16.30;89.88
79285;BME280;68734;50.452;11.636;2023-06-22T04:36:46;95758.91;;;16.23;89.66
79285;BME280;68734;50.452;11.636;2023-06-22T04:39:12;95731.09;;;16.02;90.89
79285;BME280;68734;50.452;11.636;2023-06-22T04:41:40;95710.94;;;15.79;91.97
79285;BME280;68734;50.452;11.636;2023-06-22T04:44:17;95710.88;;;15.84;92.06
79285;BME280;68734;50.452;11.636;2023-06-22T04:46:57;95707.41;;;16.03;91.92
79285;BME280;68734;50.452;11.636;2023-06-22T04:49:28;95719.81;;;16.33;91.11
79285;BME280;68734;50.452;11.636;2023-06-22T04:52:09;95720.44;;;16.68;89.66
79285;BME280;68734;50.452;11.636;2023-06-22T04:54:37;95724.03;;;17.01;88.27
79285;BME280;68734;50.452;11.636;2023-06-22T04:57:04;95734.66;;;17.35;87.37
79285;BME280;68734;50.452;11.636;2023-06-22T04:59:31;95751.72;;;17.60;85.48
79285;BME280;68734;50.452;11.636;2023-06-22T05:02:01;95757.84;;;17.85;84.34
79285;BME280;68734;50.452;11.636;2023-06-22T05:04:28;95769.63;;;18.13;84.22
79285;BME280;68734;50.452;11.636;2023-06-22T05:06:57;95775.88;;;18.13;84.17
79285;BME280;68734;50.452;11.636;2023-06-22T05:09:23;95776.41;;;17.69;85.84
79285;BME280;68734;50.452;11.636;2023-06-22T05:11:50;95785.00;;;17.62;86.09
79285;BME280;68734;50.452;11.636;2023-06-22T05:14:15;95792.31;;;17.48;86.39
79285;BME280;68734;50.452;11.636;2023-06-22T05:16:42;95793.50;;;17.42;86.54
79285;BME280;68734;50.452;11.636;2023-06-22T05:19:10;95793.78;;;17.59;85.98
79285;BME280;68734;50.452;11.636;2023-06-22T05:21:38;95801.97;;;18.75;82.31
79285;BME280;68734;50.452;11.636;2023-06-22T05:24:09;95781.97;;;20.32;75.61
79285;BME280;68734;50.452;11.636;2023-06-22T05:26:34;95783.63;;;21.69;69.82
79285;BME280;68734;50.452;11.636;2023-06-22T05:29:01;95785.06;;;22.91;65.80
79285;BME280;68734;50.452;11.636;2023-06-22T05:31:32;95783.19;;;23.34;62.90
79285;BME280;68734;50.452;11.636;2023-06-22T05:34:00;95791.53;;;24.13;60.47
79285;BME280;68734;50.452;11.636;2023-06-22T05:36:26;95788.31;;;24.35;59.70
79285;BME280;68734;50.452;11.636;2023-06-22T05:38:55;95794.28;;;24.25;60.74
79285;BME280;68734;50.452;11.636;2023-06-22T05:41:21;95785.09;;;24.33;59.84
79285;BME280;68734;50.452;11.636;2023-06-22T05:43:47;95791.69;;;24.65;58.29
79285;BME280;68734;50.452;11.636;2023-06-22T05:46:12;95797.97;;;25.15;57.82
79285;BME280;68734;50.452;11.636;2023-06-22T05:48:38;95801.16;;;24.64;58.01
79285;BME280;68734;50.452;11.636;2023-06-22T05:51:03;95806.09;;;24.71;59.18
79285;BME280;68734;50.452;11.636;2023-06-22T05:53:31;95806.44;;;24.82;58.31
79285;BME280;68734;50.452;11.636;2023-06-22T05:55:56;95813.31;;;25.13;56.88
79285;BME280;68734;50.452;11.636;2023-06-22T05:58:24;95816.19;;;25.16;54.85
79285;BME280;68734;50.452;11.636;2023-06-22T06:00:49;95817.63;;;25.51;54.24
79285;BME280;68734;50.452;11.636;2023-06-22T06:03:15;95818.00;;;26.05;54.25
79285;BME280;68734;50.452;11.636;2023-06-22T06:05:42;95812.84;;;26.52;49.75
79285;BME280;68734;50.452;11.636;2023-06-22T06:08:08;95809.94;;;26.76;48.94
79285;BME280;68734;50.452;11.636;2023-06-22T06:10:38;95803.38;;;27.00;49.29
79285;BME280;68734;50.452;11.636;2023-06-22T06:13:03;95806.44;;;26.79;49.27
79285;BME280;68734;50.452;11.636;2023-06-22T06:15:30;95810.28;;;26.91;47.37
79285;BME280;68734;50.452;11.636;2023-06-22T06:17:56;95820.97;;;26.13;48.84
79285;BME280;68734;50.452;11.636;2023-06-22T06:20:25;95813.25;;;25.78;49.98
79285;BME280;68734;50.452;11.636;2023-06-22T06:22:53;95810.22;;;24.65;54.01
79285;BME280;68734;50.452;11.636;2023-06-22T06:25:21;95819.53;;;24.48;55.49
79285;BME280;68734;50.452;11.636;2023-06-22T06:27:48;95817.13;;;24.71;54.20
79285;BME280;68734;50.452;11.636;2023-06-22T06:30:15;95814.56;;;25.27;53.71
79285;BME280;68734;50.452;11.636;2023-06-22T06:32:42;95799.63;;;25.85;51.79
79285;BME280;68734;50.452;11.636;2023-06-22T06:35:09;95801.28;;;26.02;51.07
79285;BME280;68734;50.452;11.636;2023-06-22T06:37:41;95800.19;;;26.51;49.73
79285;BME280;68734;50.452;11.636;2023-06-22T06:40:08;95804.03;;;26.78;47.58
79285;BME280;68734;50.452;11.636;2023-06-22T06:42:38;95813.25;;;27.33;46.86
79285;BME280;68734;50.452;11.636;2023-06-22T06:45:07;95808.34;;;28.24;45.75
79285;BME280;68734;50.452;11.636;2023-06-22T06:47:33;95803.03;;;28.84;43.75
79285;BME280;68734;50.452;11.636;2023-06-22T06:49:58;95803.47;;;28.17;44.40
79285;BME280;68734;50.452;11.636;2023-06-22T06:52:25;95806.91;;;27.33;46.64
79285;BME280;68734;50.452;11.636;2023-06-22T06:54:52;95801.81;;;27.19;48.57
79285;BME280;68734;50.452;11.636;2023-06-22T06:57:18;95805.75;;;26.82;48.47
79285;BME280;68734;50.452;11.636;2023-06-22T06:59:45;95806.69;;;26.26;49.78
79285;BME280;68734;50.452;11.636;2023-06-22T07:02:10;95805.50;;;26.12;51.31
79285;BME280;68734;50.452;11.636;2023-06-22T07:04:36;95803.38;;;25.36;54.59
79285;BME280;68734;50.452;11.636;2023-06-22T07:07:02;95801.16;;;24.64;55.85
79285;BME280;68734;50.452;11.636;2023-06-22T07:09:28;95800.91;;;23.99;57.41
79285;BME280;68734;50.452;11.636;2023-06-22T07:11:53;95797.06;;;23.58;58.05
79285;BME280;68734;50.452;11.636;2023-06-22T07:14:23;95798.38;;;23.40;59.81
79285;BME280;68734;50.452;11.636;2023-06-22T07:16:51;95788.53;;;23.51;61.49
79285;BME280;68734;50.452;11.636;2023-06-22T07:19:24;95791.38;;;23.63;60.14
79285;BME280;68734;50.452;11.636;2023-06-22T07:21:49;95787.44;;;23.64;60.37
79285;BME280;68734;50.452;11.636;2023-06-22T07:24:18;95783.19;;;23.88;58.57
79285;BME280;68734;50.452;11.636;2023-06-22T07:26:45;95783.78;;;23.73;58.64
79285;BME280;68734;50.452;11.636;2023-06-22T07:29:11;95780.88;;;23.78;59.46
79285;BME280;68734;50.452;11.636;2023-06-22T07:31:41;95782.59;;;23.82;59.11
79285;BME280;68734;50.452;11.636;2023-06-22T07:34:07;95768.00;;;23.82;58.09
79285;BME280;68734;50.452;11.636;2023-06-22T07:36:35;95780.44;;;23.88;57.45
79285;BME280;68734;50.452;11.636;2023-06-22T07:39:02;95767.59;;;24.04;55.68
79285;BME280;68734;50.452;11.636;2023-06-22T07:41:30;95766.81;;;24.16;55.24
79285;BME280;68734;50.452;11.636;2023-06-22T07:43:58;95774.00;;;23.84;55.88
79285;BME280;68734;50.452;11.636;2023-06-22T07:46:23;95771.16;;;24.05;57.11
79285;BME280;68734;50.452;11.636;2023-06-22T07:48:51;95765.56;;;24.14;55.53
79285;BME280;68734;50.452;11.636;2023-06-22T07:51:19;95766.22;;;24.11;54.42
79285;BME280;68734;50.452;11.636;2023-06-22T07:53:44;95762.81;;;24.26;56.11
79285;BME280;68734;50.452;11.636;2023-06-22T07:56:10;95762.16;;;24.54;54.84
79285;BME280;68734;50.452;11.636;2023-06-22T07:58:36;95756.84;;;24.73;53.82
79285;BME280;68734;50.452;11.636;2023-06-22T08:01:02;95751.34;;;24.61;53.04
79285;BME280;68734;50.452;11.636;2023-06-22T08:03:28;95753.81;;;24.17;54.55
79285;BME280;68734;50.452;11.636;2023-06-22T08:05:55;95741.41;;;24.23;54.38
79285;BME280;68734;50.452;11.636;2023-06-22T08:08:21;95757.97;;;24.47;54.21
79285;BME280;68734;50.452;11.636;2023-06-22T08:10:49;95759.03;;;24.67;53.27
79285;BME280;68734;50.452;11.636;2023-06-22T08:13:14;95755.53;;;24.95;53.91
79285;BME280;68734;50.452;11.636;2023-06-22T08:15:39;95749.75;;;25.13;53.91
79285;BME280;68734;50.452;11.636;2023-06-22T08:18:07;95746.22;;;24.87;52.50
79285;BME280;68734;50.452;11.636;2023-06-22T08:20:33;95745.09;;;24.88;54.29
79285;BME280;68734;50.452;11.636;2023-06-22T08:22:58;95729.44;;;24.93;51.60
79285;BME280;68734;50.452;11.636;2023-06-22T08:25:30;95733.88;;;25.09;51.96
79285;BME280;68734;50.452;11.636;2023-06-22T08:27:55;95725.44;;;25.18;51.26
79285;BME280;68734;50.452;11.636;2023-06-22T08:30:21;95722.84;;;25.38;50.83
79285;BME280;68734;50.452;11.636;2023-06-22T08:32:49;95728.81;;;25.52;52.14
79285;BME280;68734;50.452;11.636;2023-06-22T08:35:16;95729.31;;;25.42;49.94
79285;BME280;68734;50.452;11.636;2023-06-22T08:37:42;95734.50;;;25.59;51.26
79285;BME280;68734;50.452;11.636;2023-06-22T08:40:09;95728.91;;;25.72;49.08
79285;BME280;68734;50.452;11.636;2023-06-22T08:42:40;95728.88;;;25.84;49.77
79285;BME280;68734;50.452;11.636;2023-06-22T08:45:05;95731.84;;;25.91;49.45
79285;BME280;68734;50.452;11.636;2023-06-22T08:47:31;95722.63;;;25.87;48.29
79285;BME280;68734;50.452;11.636;2023-06-22T08:49:57;95726.00;;;25.80;49.24
79285;BME280;68734;50.452;11.636;2023-06-22T08:52:26;95716.09;;;25.79;47.54
79285;BME280;68734;50.452;11.636;2023-06-22T08:54:51;95724.56;;;25.71;49.36
79285;BME280;68734;50.452;11.636;2023-06-22T08:57:20;95729.38;;;25.74;48.16
79285;BME280;68734;50.452;11.636;2023-06-22T08:59:48;95721.97;;;25.62;49.24
79285;BME280;68734;50.452;11.636;2023-06-22T09:02:14;95718.13;;;25.66;48.84
79285;BME280;68734;50.452;11.636;2023-06-22T09:04:39;95706.78;;;25.72;48.70
79285;BME280;68734;50.452;11.636;2023-06-22T09:07:05;95707.34;;;25.77;48.00
79285;BME280;68734;50.452;11.636;2023-06-22T09:09:30;95703.22;;;25.71;48.35
79285;BME280;68734;50.452;11.636;2023-06-22T09:11:56;95705.03;;;25.79;50.14
79285;BME280;68734;50.452;11.636;2023-06-22T09:14:21;95716.34;;;26.02;49.17
79285;BME280;68734;50.452;11.636;2023-06-22T09:16:46;95702.88;;;25.73;47.74
79285;BME280;68734;50.452;11.636;2023-06-22T09:19:12;95695.69;;;25.84;48.28
79285;BME280;68734;50.452;11.636;2023-06-22T09:21:37;95699.44;;;26.07;47.73
79285;BME280;68734;50.452;11.636;2023-06-22T09:24:03;95696.06;;;26.30;47.65
79285;BME280;68734;50.452;11.636;2023-06-22T09:26:31;95694.63;;;26.36;45.97
79285;BME280;68734;50.452;11.636;2023-06-22T09:28:56;95691.41;;;26.34;45.36
79285;BME280;68734;50.452;11.636;2023-06-22T09:31:23;95688.22;;;26.32;47.24
79285;BME280;68734;50.452;11.636;2023-06-22T09:33:54;95684.13;;;26.26;45.84
79285;BME280;68734;50.452;11.636;2023-06-22T09:36:22;95683.28;;;26.25;46.11
79285;BME280;68734;50.452;11.636;2023-06-22T09:38:49;95683.38;;;26.13;47.19
79285;BME280;68734;50.452;11.636;2023-06-22T09:41:20;95681.06;;;26.31;46.96
79285;BME280;68734;50.452;11.636;2023-06-22T09:43:45;95675.94;;;26.49;46.43
79285;BME280;68734;50.452;11.636;2023-06-22T09:46:11;95677.41;;;26.27;46.38
79285;BME280;68734;50.452;11.636;2023-06-22T09:48:36;95672.38;;;26.49;46.85
79285;BME280;68734;50.452;11.636;2023-06-22T09:51:02;95684.31;;;26.69;46.64
79285;BME280;68734;50.452;11.636;2023-06-22T09:53:28;95681.72;;;26.95;45.36
79285;BME280;68734;50.452;11.636;2023-06-22T09:55:54;95678.59;;;26.97;46.03
79285;BME280;68734;50.452;11.636;2023-06-22T09:58:19;95685.31;;;27.15;46.29
79285;BME280;68734;50.452;11.636;2023-06-22T10:00:44;95664.00;;;27.19;44.35
79285;BME280;68734;50.452;11.636;2023-06-22T10:03:12;95671.28;;;27.08;44.07
79285;BME280;68734;50.452;11.636;2023-06-22T10:05:38;95680.34;;;27.05;45.20
79285;BME280;68734;50.452;11.636;2023-06-22T10:08:05;95673.38;;;27.31;44.76
79285;BME280;68734;50.452;11.636;2023-06-22T10:10:33;95681.31;;;27.52;43.76
79285;BME280;68734;50.452;11.636;2023-06-22T10:13:07;95687.94;;;27.67;43.28
79285;BME280;68734;50.452;11.636;2023-06-22T10:15:34;95672.97;;;27.71;43.64
79285;BME280;68734;50.452;11.636;2023-06-22T10:17:59;95662.91;;;27.86;41.96
79285;BME280;68734;50.452;11.636;2023-06-22T10:20:25;95673.31;;;27.89;43.07
79285;BME280;68734;50.452;11.636;2023-06-22T10:22:51;95663.22;;;27.81;41.87
79285;BME280;68734;50.452;11.636;2023-06-22T10:25:17;95658.09;;;27.83;42.09
79285;BME280;68734;50.452;11.636;2023-06-22T10:27:42;95660.09;;;28.05;42.64
79285;BME280;68734;50.452;11.636;2023-06-22T10:30:11;95660.13;;;28.32;42.88
79285;BME280;68734;50.452;11.636;2023-06-22T10:32:41;95656.50;;;28.28;41.05
79285;BME280;68734;50.452;11.636;2023-06-22T10:35:11;95662.69;;;28.18;39.85
79285;BME280;68734;50.452;11.636;2023-06-22T10:37:39;95648.00;;;27.94;41.25
79285;BME280;68734;50.452;11.636;2023-06-22T10:40:07;95654.56;;;28.05;41.00
79285;BME280;68734;50.452;11.636;2023-06-22T10:42:36;95652.97;;;28.04;40.58
79285;BME280;68734;50.452;11.636;2023-06-22T10:45:01;95649.34;;;28.27;42.12
79285;BME280;68734;50.452;11.636;2023-06-22T10:47:27;95647.63;;;28.45;41.54
79285;BME280;68734;50.452;11.636;2023-06-22T10:49:53;95644.13;;;28.49;40.18
79285;BME280;68734;50.452;11.636;2023-06-22T10:52:18;95643.50;;;28.59;40.91
79285;BME280;68734;50.452;11.636;2023-06-22T10:54:44;95644.66;;;28.58;40.64
79285;BME280;68734;50.452;11.636;2023-06-22T10:57:09;95643.88;;;28.57;39.81
79285;BME280;68734;50.452;11.636;2023-06-22T10:59:34;95645.84;;;28.57;39.48
79285;BME280;68734;50.452;11.636;2023-06-22T11:02:02;95633.13;;;28.56;38.56
79285;BME280;68734;50.452;11.636;2023-06-22T11:04:28;95637.97;;;28.62;39.20
79285;BME280;68734;50.452;11.636;2023-06-22T11:06:53;95630.03;;;28.61;38.19
79285;BME280;68734;50.452;11.636;2023-06-22T11:09:18;95634.75;;;28.57;38.90
79285;BME280;68734;50.452;11.636;2023-06-22T11:11:51;95632.84;;;28.64;38.21
79285;BME280;68734;50.452;11.636;2023-06-22T11:14:19;95631.31;;;28.67;39.02
79285;BME280;68734;50.452;11.636;2023-06-22T11:16:44;95628.63;;;28.74;38.33
79285;BME280;68734;50.452;11.636;2023-06-22T11:19:11;95631.75;;;28.69;39.08
79285;BME280;68734;50.452;11.636;2023-06-22T11:21:39;95625.75;;;28.67;38.59
79285;BME280;68734;50.452;11.636;2023-06-22T11:24:05;95620.47;;;28.58;39.48
79285;BME280;68734;50.452;11.636;2023-06-22T11:26:31;95630.97;;;28.72;39.65
79285;BME280;68734;50.452;11.636;2023-06-22T11:28:59;95628.81;;;28.89;40.29
79285;BME280;68734;50.452;11.636;2023-06-22T11:31:25;95627.31;;;28.95;38.09
79285;BME280;68734;50.452;11.636;2023-06-22T11:33:50;95617.97;;;28.80;38.59
79285;BME280;68734;50.452;11.636;2023-06-22T11:36:18;95610.69;;;28.68;38.89
79285;BME280;68734;50.452;11.636;2023-06-22T11:38:44;95612.72;;;28.71;40.68
79285;BME280;68734;50.452;11.636;2023-06-22T11:41:10;95600.09;;;28.77;39.50
79285;BME280;68734;50.452;11.636;2023-06-22T11:43:36;95596.75;;;28.95;40.03
79285;BME280;68734;50.452;11.636;2023-06-22T11:46:05;95587.56;;;28.91;39.13
79285;BME280;68734;50.452;11.636;2023-06-22T11:48:31;95585.94;;;28.90;38.12
79285;BME280;68734;50.452;11.636;2023-06-22T11:50:59;95582.75;;;28.88;38.23
79285;BME280;68734;50.452;11.636;2023-06-22T11:53:26;95578.59;;;28.74;38.22
79285;BME280;68734;50.452;11.636;2023-06-22T11:55:52;95569.19;;;28.82;38.44
79285;BME280;68734;50.452;11.636;2023-06-22T11:58:22;95569.00;;;29.02;38.45
79285;BME280;68734;50.452;11.636;2023-06-22T12:00:48;95563.88;;;29.04;38.36
79285;BME280;68734;50.452;11.636;2023-06-22T12:03:14;95558.41;;;28.77;38.82
79285;BME280;68734;50.452;11.636;2023-06-22T12:05:40;95564.91;;;28.89;39.21
79285;BME280;68734;50.452;11.636;2023-06-22T12:08:08;95565.06;;;29.03;39.25
79285;BME280;68734;50.452;11.636;2023-06-22T12:10:34;95560.84;;;29.16;37.61
79285;BME280;68734;50.452;11.636;2023-06-22T12:12:59;95548.22;;;29.22;37.00
79285;BME280;68734;50.452;11.636;2023-06-22T12:15:27;95546.00;;;29.39;38.12
79285;BME280;68734;50.452;11.636;2023-06-22T12:17:53;95542.44;;;29.42;36.45
79285;BME280;68734;50.452;11.636;2023-06-22T12:20:18;95534.19;;;29.49;38.09
79285;BME280;68734;50.452;11.636;2023-06-22T12:22:46;95527.63;;;29.31;35.73
79285;BME280;68734;50.452;11.636;2023-06-22T12:25:16;95530.78;;;29.26;36.47
79285;BME280;68734;50.452;11.636;2023-06-22T12:27:42;95518.13;;;29.32;36.78
79285;BME280;68734;50.452;11.636;2023-06-22T12:30:08;95526.25;;;29.51;36.38
79285;BME280;68734;50.452;11.636;2023-06-22T12:32:34;95521.72;;;29.77;36.51
79285;BME280;68734;50.452;11.636;2023-06-22T12:35:00;95524.06;;;29.75;36.68
79285;BME280;68734;50.452;11.636;2023-06-22T12:37:25;95534.63;;;30.03;36.29
79285;BME280;68734;50.452;11.636;2023-06-22T12:39:52;95529.91;;;30.11;36.12
79285;BME280;68734;50.452;11.636;2023-06-22T12:42:28;95527.63;;;30.27;35.60
79285;BME280;68734;50.452;11.636;2023-06-22T12:44:53;95525.22;;;30.26;35.01
79285;BME280;68734;50.452;11.636;2023-06-22T12:47:19;95504.59;;;30.30;35.92
79285;BME280;68734;50.452;11.636;2023-06-22T12:49:45;95499.03;;;29.75;35.23
79285;BME280;68734;50.452;11.636;2023-06-22T12:52:13;95493.75;;;29.62;35.06
79285;BME280;68734;50.452;11.636;2023-06-22T12:54:38;95494.97;;;29.69;36.78